createdAt,value
2016-08-27T00:00:07.708Z,0
2016-08-27T00:01:06.284Z,0
2016-08-27T00:02:06.341Z,0
2016-08-27T00:03:06.278Z,0
2016-08-27T00:04:06.976Z,0
2016-08-27T00:05:06.975Z,0
2016-08-27T00:06:06.959Z,0
2016-08-27T00:07:06.955Z,0
2016-08-27T00:08:06.240Z,0
2016-08-27T00:09:06.230Z,0
2016-08-27T00:10:06.231Z,0
2016-08-27T00:11:07.641Z,0
2016-08-27T00:12:06.219Z,0
2016-08-27T00:13:06.218Z,0
2016-08-27T00:14:06.910Z,0
2016-08-27T00:15:06.907Z,0
2016-08-27T00:16:06.188Z,0
2016-08-27T00:17:06.196Z,0
2016-08-27T00:18:06.884Z,0
2016-08-27T00:19:06.174Z,0
2016-08-27T00:20:06.163Z,0
2016-08-27T00:21:06.153Z,0
2016-08-27T00:22:06.908Z,0
2016-08-27T00:23:06.148Z,0
2016-08-27T00:24:06.138Z,0
2016-08-27T00:25:06.840Z,0
2016-08-27T00:26:06.126Z,0
2016-08-27T00:27:06.120Z,0
2016-08-27T00:28:06.834Z,0
2016-08-27T00:29:06.815Z,0
2016-08-27T00:30:06.805Z,0
2016-08-27T00:31:06.801Z,0
2016-08-27T00:32:06.088Z,0
2016-08-27T00:33:06.079Z,0
2016-08-27T00:34:06.786Z,0
2016-08-27T00:35:06.063Z,0
2016-08-27T00:36:06.768Z,0
2016-08-27T00:37:06.766Z,0
2016-08-27T00:38:06.753Z,0
2016-08-27T00:39:06.750Z,0
2016-08-27T00:40:06.780Z,0
2016-08-27T00:41:06.029Z,0
2016-08-27T00:42:06.725Z,0
2016-08-27T00:43:06.014Z,0
2016-08-27T00:44:06.011Z,0
2016-08-27T00:45:06.709Z,0
2016-08-27T00:46:06.003Z,0
2016-08-27T00:47:05.999Z,0
2016-08-27T00:48:06.686Z,0
2016-08-27T00:49:06.683Z,0
2016-08-27T00:50:05.966Z,0
2016-08-27T00:51:06.673Z,0
2016-08-27T00:52:05.961Z,0
2016-08-27T00:53:07.364Z,0
2016-08-27T00:54:05.941Z,0
2016-08-27T00:55:07.355Z,0
2016-08-27T00:56:06.635Z,0
2016-08-27T00:57:05.925Z,0
2016-08-27T00:58:06.642Z,0
2016-08-27T00:59:05.902Z,0
2016-08-27T01:00:05.907Z,0
2016-08-27T01:01:06.604Z,0
2016-08-27T01:02:05.887Z,0
2016-08-27T01:03:05.884Z,0
2016-08-27T01:04:06.579Z,0
2016-08-27T01:05:06.582Z,0
2016-08-27T01:06:06.568Z,0
2016-08-27T01:07:05.854Z,0
2016-08-27T01:08:05.843Z,0
2016-08-27T01:09:05.845Z,0
2016-08-27T01:10:05.831Z,0
2016-08-27T01:11:06.533Z,0
2016-08-27T01:12:06.520Z,0
2016-08-27T01:13:05.819Z,0
2016-08-27T01:14:06.517Z,0
2016-08-27T01:15:06.501Z,0
2016-08-27T01:16:05.799Z,0
2016-08-27T01:17:07.202Z,0
2016-08-27T01:18:06.488Z,0
2016-08-27T01:19:05.773Z,0
2016-08-27T01:20:06.468Z,0
2016-08-27T01:21:05.756Z,0
2016-08-27T01:22:05.746Z,0
2016-08-27T01:23:06.494Z,0
2016-08-27T01:24:05.736Z,0
2016-08-27T01:25:05.737Z,0
2016-08-27T01:26:05.723Z,0
2016-08-27T01:27:05.734Z,0
2016-08-27T01:28:05.706Z,0
2016-08-27T01:29:06.424Z,0
2016-08-27T01:30:05.695Z,0
2016-08-27T01:31:05.681Z,0
2016-08-27T01:32:05.681Z,0
2016-08-27T01:33:05.676Z,0
2016-08-27T01:34:05.699Z,0
2016-08-27T01:35:05.658Z,0
2016-08-27T01:36:06.361Z,0
2016-08-27T01:37:05.644Z,0
2016-08-27T01:38:05.688Z,0
2016-08-27T01:39:05.627Z,0
2016-08-27T01:40:06.336Z,0
2016-08-27T01:41:05.624Z,0
2016-08-27T01:42:06.321Z,0
2016-08-27T01:43:05.616Z,0
2016-08-27T01:44:06.296Z,0
2016-08-27T01:45:05.594Z,0
2016-08-27T01:46:05.587Z,0
2016-08-27T01:47:06.291Z,0
2016-08-27T01:48:05.581Z,0
2016-08-27T01:49:05.559Z,0
2016-08-27T01:50:06.257Z,0
2016-08-27T01:51:06.255Z,0
2016-08-27T01:52:05.531Z,0
2016-08-27T01:53:05.535Z,0
2016-08-27T01:54:05.519Z,0
2016-08-27T01:55:06.225Z,0
2016-08-27T01:56:05.525Z,0
2016-08-27T01:57:05.504Z,0
2016-08-27T01:58:05.902Z,0
2016-08-27T01:59:06.201Z,0
2016-08-27T02:00:06.188Z,0
2016-08-27T02:01:05.477Z,0
2016-08-27T02:02:06.178Z,0
2016-08-27T02:03:06.178Z,0
2016-08-27T02:04:05.455Z,0
2016-08-27T02:05:05.439Z,0
2016-08-27T02:06:05.439Z,0
2016-08-27T02:07:06.852Z,0
2016-08-27T02:08:06.139Z,0
2016-08-27T02:09:06.836Z,0
2016-08-27T02:10:05.414Z,0
2016-08-27T02:11:06.150Z,0
2016-08-27T02:12:05.396Z,0
2016-08-27T02:13:05.390Z,0
2016-08-27T02:14:05.395Z,0
2016-08-27T02:15:05.380Z,0
2016-08-27T02:16:06.086Z,0
2016-08-27T02:17:05.369Z,0
2016-08-27T02:18:05.350Z,0
2016-08-27T02:19:05.366Z,0
2016-08-27T02:20:05.335Z,0
2016-08-27T02:21:05.329Z,0
2016-08-27T02:22:05.383Z,0
2016-08-27T02:23:05.314Z,0
2016-08-27T02:24:05.310Z,0
2016-08-27T02:25:05.356Z,0
2016-08-27T02:26:05.296Z,0
2016-08-27T02:27:05.284Z,0
2016-08-27T02:28:05.349Z,0
2016-08-27T02:29:05.274Z,0
2016-08-27T02:30:07.387Z,0
2016-08-27T02:31:05.965Z,0
2016-08-27T02:32:05.252Z,0
2016-08-27T02:33:05.245Z,0
2016-08-27T02:34:06.647Z,0
2016-08-27T02:35:05.941Z,0
2016-08-27T02:36:05.219Z,0
2016-08-27T02:37:05.923Z,0
2016-08-27T02:38:05.917Z,0
2016-08-27T02:39:05.201Z,0
2016-08-27T02:40:05.912Z,0
2016-08-27T02:41:05.185Z,0
2016-08-27T02:42:05.181Z,0
2016-08-27T02:43:05.881Z,0
2016-08-27T02:44:05.165Z,0
2016-08-27T02:45:05.155Z,0
2016-08-27T02:46:07.271Z,0
2016-08-27T02:47:05.858Z,0
2016-08-27T02:48:05.136Z,0
2016-08-27T02:49:05.130Z,0
2016-08-27T02:50:05.124Z,0
2016-08-27T02:51:05.125Z,0
2016-08-27T02:52:05.097Z,0
2016-08-27T02:53:05.104Z,0
2016-08-27T02:54:05.798Z,0
2016-08-27T02:55:05.799Z,0
2016-08-27T02:56:05.781Z,0
2016-08-27T02:57:05.074Z,0
2016-08-27T02:58:05.072Z,0
2016-08-27T02:59:05.066Z,0
2016-08-27T03:00:05.040Z,0
2016-08-27T03:01:05.042Z,0
2016-08-27T03:02:05.029Z,0
2016-08-27T03:03:06.445Z,0
2016-08-27T03:04:05.067Z,0
2016-08-27T03:05:05.712Z,0
2016-08-27T03:06:05.711Z,0
2016-08-27T03:07:05.009Z,0
2016-08-27T03:08:04.996Z,0
2016-08-27T03:09:05.701Z,0
2016-08-27T03:10:05.676Z,0
2016-08-27T03:11:04.976Z,0
2016-08-27T03:12:05.665Z,0
2016-08-27T03:13:04.946Z,0
2016-08-27T03:14:04.954Z,0
2016-08-27T03:15:05.638Z,0
2016-08-27T03:16:04.987Z,0
2016-08-27T03:17:04.922Z,0
2016-08-27T03:18:04.904Z,0
2016-08-27T03:19:04.905Z,0
2016-08-27T03:20:05.604Z,0
2016-08-27T03:21:06.306Z,0
2016-08-27T03:22:05.590Z,0
2016-08-27T03:23:04.868Z,0
2016-08-27T03:24:04.891Z,0
2016-08-27T03:25:04.857Z,0
2016-08-27T03:26:04.856Z,0
2016-08-27T03:27:04.854Z,0
2016-08-27T03:28:04.831Z,0
2016-08-27T03:29:04.843Z,0
2016-08-27T03:30:04.830Z,0
2016-08-27T03:31:04.816Z,0
2016-08-27T03:32:04.808Z,0
2016-08-27T03:33:04.795Z,0
2016-08-27T03:34:04.805Z,0
2016-08-27T03:35:05.549Z,0
2016-08-27T03:36:04.786Z,0
2016-08-27T03:37:05.545Z,0
2016-08-27T03:38:04.762Z,0
2016-08-27T03:39:05.471Z,0
2016-08-27T03:40:05.464Z,0
2016-08-27T03:41:05.448Z,0
2016-08-27T03:42:04.738Z,0
2016-08-27T03:43:04.736Z,0
2016-08-27T03:44:04.715Z,0
2016-08-27T03:45:04.712Z,0
2016-08-27T03:46:05.407Z,0
2016-08-27T03:47:05.405Z,0
2016-08-27T03:48:04.689Z,0
2016-08-27T03:49:04.675Z,0
2016-08-27T03:50:04.725Z,0
2016-08-27T03:51:05.422Z,0
2016-08-27T03:52:04.656Z,0
2016-08-27T03:53:05.360Z,0
2016-08-27T03:54:06.057Z,0
2016-08-27T03:55:04.633Z,0
2016-08-27T03:56:05.338Z,0
2016-08-27T03:57:04.615Z,0
2016-08-27T03:58:05.016Z,0
2016-08-27T03:59:05.315Z,0
2016-08-27T04:00:05.303Z,0
2016-08-27T04:01:05.301Z,0
2016-08-27T04:02:04.584Z,0
2016-08-27T04:03:04.582Z,0
2016-08-27T04:04:04.569Z,0
2016-08-27T04:05:05.310Z,0
2016-08-27T04:06:05.267Z,0
2016-08-27T04:07:04.545Z,0
2016-08-27T04:08:04.529Z,0
2016-08-27T04:09:04.533Z,0
2016-08-27T04:10:04.532Z,0
2016-08-27T04:11:04.519Z,0
2016-08-27T04:12:04.523Z,0
2016-08-27T04:13:05.200Z,0
2016-08-27T04:14:05.195Z,0
2016-08-27T04:15:04.486Z,0
2016-08-27T04:16:04.476Z,0
2016-08-27T04:17:04.471Z,0
2016-08-27T04:18:04.462Z,0
2016-08-27T04:19:05.155Z,0
2016-08-27T04:20:04.444Z,0
2016-08-27T04:21:05.142Z,0
2016-08-27T04:22:05.136Z,0
2016-08-27T04:23:05.173Z,0
2016-08-27T04:24:04.461Z,0
2016-08-27T04:25:04.409Z,0
2016-08-27T04:26:05.112Z,0
2016-08-27T04:27:04.395Z,0
2016-08-27T04:28:04.393Z,0
2016-08-27T04:29:04.422Z,0
2016-08-27T04:30:04.375Z,0
2016-08-27T04:31:05.067Z,0
2016-08-27T04:32:04.353Z,0
2016-08-27T04:33:04.399Z,0
2016-08-27T04:34:04.329Z,0
2016-08-27T04:35:04.335Z,0
2016-08-27T04:36:04.325Z,0
2016-08-27T04:37:04.324Z,5
2016-08-27T04:38:04.411Z,5
2016-08-27T04:39:04.314Z,5
2016-08-27T04:40:05.004Z,5
2016-08-27T04:41:04.276Z,5
2016-08-27T04:42:04.274Z,5
2016-08-27T04:43:04.277Z,5
2016-08-27T04:44:04.961Z,5
2016-08-27T04:45:04.261Z,5
2016-08-27T04:46:04.239Z,5
2016-08-27T04:47:04.965Z,10
2016-08-27T04:48:04.223Z,10
2016-08-27T04:49:05.639Z,10
2016-08-27T04:50:04.929Z,10
2016-08-27T04:51:04.204Z,10
2016-08-27T04:52:04.197Z,10
2016-08-27T04:53:04.181Z,10
2016-08-27T04:54:04.180Z,10
2016-08-27T04:55:04.215Z,15
2016-08-27T04:56:04.160Z,15
2016-08-27T04:57:04.164Z,15
2016-08-27T04:58:04.858Z,15
2016-08-27T04:59:05.554Z,15
2016-08-27T05:00:04.840Z,15
2016-08-27T05:01:04.838Z,15
2016-08-27T05:02:04.153Z,20
2016-08-27T05:03:04.824Z,20
2016-08-27T05:04:04.102Z,20
2016-08-27T05:05:04.812Z,20
2016-08-27T05:06:04.795Z,20
2016-08-27T05:07:04.786Z,20
2016-08-27T05:08:05.487Z,20
2016-08-27T05:09:04.763Z,25
2016-08-27T05:10:04.056Z,25
2016-08-27T05:11:05.460Z,25
2016-08-27T05:12:04.040Z,25
2016-08-27T05:13:04.739Z,25
2016-08-27T05:14:04.018Z,25
2016-08-27T05:15:04.746Z,25
2016-08-27T05:16:04.015Z,30
2016-08-27T05:17:05.427Z,30
2016-08-27T05:18:03.991Z,30
2016-08-27T05:19:03.981Z,30
2016-08-27T05:20:04.702Z,30
2016-08-27T05:21:03.968Z,30
2016-08-27T05:22:03.967Z,35
2016-08-27T05:23:03.958Z,35
2016-08-27T05:24:05.457Z,35
2016-08-27T05:25:03.993Z,35
2016-08-27T05:26:03.937Z,35
2016-08-27T05:27:03.921Z,35
2016-08-27T05:28:03.913Z,35
2016-08-27T05:29:03.917Z,40
2016-08-27T05:30:05.316Z,40
2016-08-27T05:31:04.599Z,40
2016-08-27T05:32:04.596Z,40
2016-08-27T05:33:04.607Z,40
2016-08-27T05:34:04.582Z,40
2016-08-27T05:35:04.567Z,45
2016-08-27T05:36:05.283Z,45
2016-08-27T05:37:03.859Z,45
2016-08-27T05:38:04.551Z,45
2016-08-27T05:39:04.559Z,45
2016-08-27T05:40:03.825Z,45
2016-08-27T05:41:03.853Z,45
2016-08-27T05:42:03.804Z,50
2016-08-27T05:43:03.804Z,50
2016-08-27T05:44:03.795Z,50
2016-08-27T05:45:03.788Z,50
2016-08-27T05:46:04.490Z,50
2016-08-27T05:47:03.772Z,50
2016-08-27T05:48:03.771Z,50
2016-08-27T05:49:04.454Z,55
2016-08-27T05:50:04.459Z,55
2016-08-27T05:51:05.150Z,55
2016-08-27T05:52:04.440Z,55
2016-08-27T05:53:04.461Z,55
2016-08-27T05:54:03.719Z,55
2016-08-27T05:55:04.430Z,55
2016-08-27T05:56:04.408Z,55
2016-08-27T05:57:03.705Z,60
2016-08-27T05:58:03.687Z,60
2016-08-27T05:59:03.684Z,60
2016-08-27T06:00:03.674Z,60
2016-08-27T06:01:04.373Z,60
2016-08-27T06:02:03.656Z,60
2016-08-27T06:03:03.648Z,60
2016-08-27T06:04:03.650Z,60
2016-08-27T06:05:03.686Z,65
2016-08-27T06:06:04.354Z,65
2016-08-27T06:07:03.632Z,65
2016-08-27T06:08:03.618Z,65
2016-08-27T06:09:04.320Z,65
2016-08-27T06:10:04.327Z,65
2016-08-27T06:11:04.301Z,65
2016-08-27T06:12:03.628Z,65
2016-08-27T06:13:05.010Z,70
2016-08-27T06:14:03.566Z,70
2016-08-27T06:15:03.572Z,70
2016-08-27T06:16:03.573Z,70
2016-08-27T06:17:04.968Z,70
2016-08-27T06:18:03.545Z,70
2016-08-27T06:19:03.537Z,70
2016-08-27T06:20:04.246Z,70
2016-08-27T06:21:03.537Z,75
2016-08-27T06:22:03.518Z,75
2016-08-27T06:23:04.266Z,75
2016-08-27T06:24:03.696Z,75
2016-08-27T06:25:03.537Z,75
2016-08-27T06:26:04.961Z,75
2016-08-27T06:27:03.493Z,75
2016-08-27T06:28:03.490Z,75
2016-08-27T06:29:03.465Z,80
2016-08-27T06:30:04.163Z,80
2016-08-27T06:31:04.158Z,80
2016-08-27T06:32:03.437Z,80
2016-08-27T06:33:03.437Z,80
2016-08-27T06:34:03.432Z,80
2016-08-27T06:35:04.121Z,80
2016-08-27T06:36:04.824Z,80
2016-08-27T06:37:04.102Z,85
2016-08-27T06:38:04.838Z,85
2016-08-27T06:39:03.383Z,85
2016-08-27T06:40:05.014Z,85
2016-08-27T06:41:04.075Z,85
2016-08-27T06:42:05.526Z,85
2016-08-27T06:43:04.068Z,85
2016-08-27T06:44:04.050Z,85
2016-08-27T06:45:18.975Z,85
2016-08-27T06:46:03.322Z,85
2016-08-27T06:47:03.325Z,85
2016-08-27T06:48:04.040Z,85
2016-08-27T06:49:04.779Z,85
2016-08-27T06:50:04.220Z,85
2016-08-27T06:51:03.300Z,85
2016-08-27T06:52:03.303Z,85
2016-08-27T06:53:04.003Z,85
2016-08-27T06:54:04.698Z,90
2016-08-27T06:55:03.267Z,90
2016-08-27T06:56:05.421Z,90
2016-08-27T06:57:03.979Z,90
2016-08-27T06:58:03.947Z,90
2016-08-27T06:59:03.972Z,90
2016-08-27T07:00:03.938Z,90
2016-08-27T07:01:03.933Z,90
2016-08-27T07:02:03.960Z,95
2016-08-27T07:03:03.220Z,95
2016-08-27T07:04:03.204Z,95
2016-08-27T07:05:03.915Z,95
2016-08-27T07:06:03.919Z,95
2016-08-27T07:07:03.182Z,95
2016-08-27T07:08:03.249Z,100
2016-08-27T07:09:03.896Z,100
2016-08-27T07:10:03.875Z,100
2016-08-27T07:11:03.863Z,105
2016-08-27T07:12:03.914Z,105
2016-08-27T07:13:04.283Z,100
2016-08-27T07:14:03.864Z,100
2016-08-27T07:15:03.842Z,100
2016-08-27T07:16:03.131Z,100
2016-08-27T07:17:03.164Z,100
2016-08-27T07:18:03.177Z,100
2016-08-27T07:19:03.854Z,105
2016-08-27T07:20:03.828Z,105
2016-08-27T07:21:03.822Z,105
2016-08-27T07:22:03.813Z,105
2016-08-27T07:23:03.840Z,105
2016-08-27T07:24:03.088Z,105
2016-08-27T07:25:03.775Z,110
2016-08-27T07:26:03.756Z,110
2016-08-27T07:27:03.767Z,110
2016-08-27T07:28:03.743Z,110
2016-08-27T07:29:03.036Z,110
2016-08-27T07:30:05.162Z,110
2016-08-27T07:31:03.729Z,110
2016-08-27T07:32:03.009Z,110
2016-08-27T07:33:03.007Z,110
2016-08-27T07:34:02.997Z,110
2016-08-27T07:35:02.987Z,115
2016-08-27T07:36:02.991Z,115
2016-08-27T07:37:02.984Z,115
2016-08-27T07:38:03.686Z,115
2016-08-27T07:39:04.393Z,115
2016-08-27T07:40:05.086Z,115
2016-08-27T07:41:02.953Z,120
2016-08-27T07:42:04.361Z,120
2016-08-27T07:43:05.139Z,120
2016-08-27T07:44:02.925Z,120
2016-08-27T07:45:02.981Z,120
2016-08-27T07:46:02.930Z,120
2016-08-27T07:47:03.620Z,120
2016-08-27T07:48:02.909Z,120
2016-08-27T07:49:02.901Z,120
2016-08-27T07:50:04.309Z,120
2016-08-27T07:51:03.595Z,125
2016-08-27T07:52:02.877Z,125
2016-08-27T07:53:02.872Z,125
2016-08-27T07:54:03.583Z,125
2016-08-27T07:55:02.858Z,125
2016-08-27T07:56:05.834Z,125
2016-08-27T07:57:03.577Z,130
2016-08-27T07:58:02.845Z,130
2016-08-27T07:59:02.837Z,130
2016-08-27T08:00:02.876Z,130
2016-08-27T08:01:03.536Z,135
2016-08-27T08:02:02.816Z,135
2016-08-27T08:03:02.806Z,135
2016-08-27T08:04:03.511Z,140
2016-08-27T08:05:02.795Z,140
2016-08-27T08:06:02.791Z,145
2016-08-27T08:07:02.781Z,145
2016-08-27T08:08:02.784Z,145
2016-08-27T08:09:03.494Z,145
2016-08-27T08:10:02.774Z,150
2016-08-27T08:11:02.763Z,150
2016-08-27T08:12:03.459Z,150
2016-08-27T08:13:03.455Z,150
2016-08-27T08:14:03.456Z,485
2016-08-27T08:15:04.163Z,910
2016-08-27T08:16:03.444Z,560
2016-08-27T08:17:03.432Z,525
2016-08-27T08:18:02.728Z,415
2016-08-27T08:19:02.708Z,355
2016-08-27T08:20:02.710Z,280
2016-08-27T08:21:02.700Z,190
2016-08-27T08:22:02.690Z,165
2016-08-27T08:23:04.309Z,165
2016-08-27T08:24:03.394Z,275
2016-08-27T08:25:02.683Z,405
2016-08-27T08:26:03.381Z,410
2016-08-27T08:27:02.679Z,450
2016-08-27T08:28:04.837Z,475
2016-08-27T08:29:03.371Z,610
2016-08-27T08:30:03.364Z,785
2016-08-27T08:31:02.648Z,820
2016-08-27T08:32:02.651Z,450
2016-08-27T08:33:04.064Z,490
2016-08-27T08:34:03.385Z,445
2016-08-27T08:35:02.621Z,465
2016-08-27T08:36:02.676Z,435
2016-08-27T08:37:02.613Z,355
2016-08-27T08:38:03.333Z,250
2016-08-27T08:39:04.071Z,300
2016-08-27T08:40:02.597Z,230
2016-08-27T08:41:04.013Z,240
2016-08-27T08:42:03.288Z,255
2016-08-27T08:43:02.603Z,175
2016-08-27T08:44:02.570Z,170
2016-08-27T08:45:02.577Z,170
2016-08-27T08:46:02.571Z,170
2016-08-27T08:47:03.335Z,170
2016-08-27T08:48:03.266Z,170
2016-08-27T08:49:02.557Z,165
2016-08-27T08:50:03.260Z,170
2016-08-27T08:51:03.242Z,175
2016-08-27T08:52:02.535Z,175
2016-08-27T08:53:03.252Z,175
2016-08-27T08:54:02.531Z,175
2016-08-27T08:55:03.949Z,175
2016-08-27T08:56:03.227Z,170
2016-08-27T08:57:03.227Z,170
2016-08-27T08:58:02.505Z,170
2016-08-27T08:59:02.521Z,175
2016-08-27T09:00:03.914Z,170
2016-08-27T09:01:03.203Z,170
2016-08-27T09:02:03.189Z,175
2016-08-27T09:03:02.488Z,385
2016-08-27T09:04:03.181Z,520
2016-08-27T09:05:03.231Z,420
2016-08-27T09:06:03.171Z,935
2016-08-27T09:07:02.487Z,765
2016-08-27T09:08:03.160Z,525
2016-08-27T09:09:03.158Z,320
2016-08-27T09:10:03.153Z,370
2016-08-27T09:11:02.447Z,270
2016-08-27T09:12:03.148Z,230
2016-08-27T09:13:03.152Z,185
2016-08-27T09:14:03.840Z,180
2016-08-27T09:15:02.423Z,185
2016-08-27T09:16:03.119Z,200
2016-08-27T09:17:02.408Z,210
2016-08-27T09:18:03.109Z,195
2016-08-27T09:19:02.400Z,180
2016-08-27T09:20:02.406Z,185
2016-08-27T09:21:03.830Z,200
2016-08-27T09:22:02.394Z,220
2016-08-27T09:23:02.393Z,510
2016-08-27T09:24:03.144Z,625
2016-08-27T09:25:02.368Z,515
2016-08-27T09:26:03.085Z,370
2016-08-27T09:27:03.781Z,450
2016-08-27T09:28:03.083Z,190
2016-08-27T09:29:03.069Z,230
2016-08-27T09:30:02.349Z,275
2016-08-27T09:31:03.759Z,200
2016-08-27T09:32:02.349Z,195
2016-08-27T09:33:03.814Z,320
2016-08-27T09:34:03.040Z,300
2016-08-27T09:35:03.042Z,220
2016-08-27T09:36:04.474Z,200
2016-08-27T09:37:03.751Z,195
2016-08-27T09:38:03.747Z,205
2016-08-27T09:39:03.015Z,190
2016-08-27T09:40:03.784Z,190
2016-08-27T09:41:03.006Z,190
2016-08-27T09:42:03.002Z,195
2016-08-27T09:43:03.006Z,195
2016-08-27T09:44:03.718Z,195
2016-08-27T09:45:02.501Z,195
2016-08-27T09:46:02.282Z,195
2016-08-27T09:47:02.499Z,200
2016-08-27T09:48:02.296Z,200
2016-08-27T09:49:02.967Z,200
2016-08-27T09:50:02.966Z,200
2016-08-27T09:51:02.968Z,200
2016-08-27T09:52:02.959Z,195
2016-08-27T09:53:02.247Z,200
2016-08-27T09:54:02.950Z,200
2016-08-27T09:55:02.229Z,205
2016-08-27T09:56:02.249Z,210
2016-08-27T09:57:02.941Z,210
2016-08-27T09:58:02.947Z,205
2016-08-27T09:59:02.216Z,210
2016-08-27T10:00:02.275Z,220
2016-08-27T10:01:02.203Z,265
2016-08-27T10:02:02.907Z,230
2016-08-27T10:03:02.205Z,275
2016-08-27T10:04:02.894Z,255
2016-08-27T10:05:02.182Z,225
2016-08-27T10:06:02.889Z,215
2016-08-27T10:07:02.179Z,215
2016-08-27T10:08:03.591Z,225
2016-08-27T10:09:02.223Z,240
2016-08-27T10:10:02.869Z,225
2016-08-27T10:11:02.163Z,225
2016-08-27T10:12:02.152Z,235
2016-08-27T10:13:04.277Z,230
2016-08-27T10:14:02.157Z,230
2016-08-27T10:15:02.849Z,235
2016-08-27T10:16:02.132Z,225
2016-08-27T10:17:02.127Z,240
2016-08-27T10:18:02.121Z,300
2016-08-27T10:19:02.844Z,315
2016-08-27T10:20:02.819Z,265
2016-08-27T10:21:02.108Z,240
2016-08-27T10:22:02.153Z,235
2016-08-27T10:23:02.095Z,235
2016-08-27T10:24:02.817Z,265
2016-08-27T10:25:02.078Z,275
2016-08-27T10:26:02.083Z,280
2016-08-27T10:27:02.799Z,280
2016-08-27T10:28:02.074Z,310
2016-08-27T10:29:02.777Z,305
2016-08-27T10:30:02.771Z,285
2016-08-27T10:31:02.078Z,260
2016-08-27T10:32:02.107Z,260
2016-08-27T10:33:02.759Z,270
2016-08-27T10:34:02.038Z,280
2016-08-27T10:35:02.761Z,290
2016-08-27T10:36:02.750Z,295
2016-08-27T10:37:02.034Z,300
2016-08-27T10:38:02.027Z,305
2016-08-27T10:39:02.740Z,345
2016-08-27T10:40:02.737Z,325
2016-08-27T10:41:02.003Z,330
2016-08-27T10:42:02.716Z,430
2016-08-27T10:43:02.709Z,360
2016-08-27T10:44:02.714Z,345
2016-08-27T10:45:01.992Z,325
2016-08-27T10:46:01.996Z,320
2016-08-27T10:47:02.686Z,325
2016-08-27T10:48:01.972Z,325
2016-08-27T10:49:01.985Z,330
2016-08-27T10:50:02.674Z,355
2016-08-27T10:51:01.970Z,340
2016-08-27T10:52:01.963Z,385
2016-08-27T10:53:01.970Z,340
2016-08-27T10:54:01.952Z,440
2016-08-27T10:55:01.969Z,445
2016-08-27T10:56:01.943Z,430
2016-08-27T10:57:01.942Z,430
2016-08-27T10:58:01.948Z,535
2016-08-27T10:59:01.945Z,825
2016-08-27T11:00:01.951Z,935
2016-08-27T11:01:01.937Z,890
2016-08-27T11:02:01.925Z,765
2016-08-27T11:03:02.634Z,565
2016-08-27T11:04:01.921Z,480
2016-08-27T11:05:01.926Z,565
2016-08-27T11:06:01.922Z,450
2016-08-27T11:07:01.907Z,465
2016-08-27T11:08:02.612Z,615
2016-08-27T11:09:01.954Z,790
2016-08-27T11:10:01.899Z,880
2016-08-27T11:11:02.604Z,1085
2016-08-27T11:12:01.897Z,1425
2016-08-27T11:13:03.304Z,1705
2016-08-27T11:14:02.603Z,1730
2016-08-27T11:15:01.890Z,1725
2016-08-27T11:16:03.371Z,1715
2016-08-27T11:17:02.699Z,1680
2016-08-27T11:18:01.908Z,1670
2016-08-27T11:19:01.906Z,1655
2016-08-27T11:20:01.910Z,1660
2016-08-27T11:21:03.307Z,1705
2016-08-27T11:22:03.371Z,1750
2016-08-27T11:23:03.348Z,1780
2016-08-27T11:24:02.606Z,1790
2016-08-27T11:25:01.924Z,1770
2016-08-27T11:26:03.327Z,1750
2016-08-27T11:27:03.403Z,1760
2016-08-27T11:28:02.686Z,1790
2016-08-27T11:29:01.930Z,1805
2016-08-27T11:30:02.615Z,1820
2016-08-27T11:31:02.640Z,1830
2016-08-27T11:32:02.686Z,1835
2016-08-27T11:33:03.338Z,1835
2016-08-27T11:34:03.383Z,1830
2016-08-27T11:35:02.670Z,1845
2016-08-27T11:36:01.936Z,1855
2016-08-27T11:37:01.967Z,1870
2016-08-27T11:38:03.426Z,1860
2016-08-27T11:39:04.078Z,1850
2016-08-27T11:40:02.716Z,1795
2016-08-27T11:41:02.718Z,1840
2016-08-27T11:42:02.693Z,1940
2016-08-27T11:43:02.728Z,1975
2016-08-27T11:44:03.444Z,1995
2016-08-27T11:45:03.440Z,1995
2016-08-27T11:46:02.694Z,1995
2016-08-27T11:47:02.689Z,1985
2016-08-27T11:48:01.987Z,1985
2016-08-27T11:49:03.481Z,2025
2016-08-27T11:50:03.441Z,2010
2016-08-27T11:51:02.733Z,2000
2016-08-27T11:52:02.025Z,1910
2016-08-27T11:53:02.737Z,1755
2016-08-27T11:54:02.783Z,1625
2016-08-27T11:55:03.486Z,1625
2016-08-27T11:56:03.436Z,1745
2016-08-27T11:57:02.036Z,1860
2016-08-27T11:58:02.777Z,1900
2016-08-27T11:59:02.252Z,1845
2016-08-27T12:00:03.520Z,1765
2016-08-27T12:01:02.817Z,1835
2016-08-27T12:02:02.080Z,1920
2016-08-27T12:03:03.483Z,1970
2016-08-27T12:04:04.263Z,2015
2016-08-27T12:05:02.847Z,1975
2016-08-27T12:06:03.555Z,1960
2016-08-27T12:07:02.802Z,1945
2016-08-27T12:08:02.869Z,1945
2016-08-27T12:09:02.166Z,1945
2016-08-27T12:10:04.269Z,1980
2016-08-27T12:11:02.175Z,2005
2016-08-27T12:12:02.840Z,2000
2016-08-27T12:13:02.180Z,2005
2016-08-27T12:14:02.903Z,2000
2016-08-27T12:15:02.160Z,1990
2016-08-27T12:16:02.252Z,1960
2016-08-27T12:17:02.873Z,1965
2016-08-27T12:18:03.603Z,1985
2016-08-27T12:19:02.910Z,1995
2016-08-27T12:20:02.935Z,1950
2016-08-27T12:21:03.655Z,1895
2016-08-27T12:22:03.630Z,1875
2016-08-27T12:23:02.943Z,1920
2016-08-27T12:24:02.220Z,1960
2016-08-27T12:25:03.676Z,1945
2016-08-27T12:26:02.223Z,1820
2016-08-27T12:27:02.247Z,1720
2016-08-27T12:28:02.995Z,1735
2016-08-27T12:29:02.265Z,1855
2016-08-27T12:30:02.990Z,1990
2016-08-27T12:31:02.290Z,2025
2016-08-27T12:32:02.284Z,1925
2016-08-27T12:33:03.010Z,1775
2016-08-27T12:34:03.699Z,1615
2016-08-27T12:35:03.030Z,1590
2016-08-27T12:36:02.316Z,1750
2016-08-27T12:37:02.315Z,1840
2016-08-27T12:38:03.039Z,1925
2016-08-27T12:39:02.329Z,1930
2016-08-27T12:40:02.321Z,1905
2016-08-27T12:41:03.034Z,1915
2016-08-27T12:42:02.383Z,1920
2016-08-27T12:43:02.359Z,1910
2016-08-27T12:44:02.406Z,1875
2016-08-27T12:45:03.111Z,1870
2016-08-27T12:46:03.094Z,1820
2016-08-27T12:47:03.113Z,1760
2016-08-27T12:48:03.860Z,1655
2016-08-27T12:49:02.439Z,1585
2016-08-27T12:50:03.866Z,1635
2016-08-27T12:51:02.416Z,1740
2016-08-27T12:52:03.119Z,1840
2016-08-27T12:53:02.464Z,1855
2016-08-27T12:54:03.868Z,1815
2016-08-27T12:55:03.872Z,1795
2016-08-27T12:56:03.175Z,1795
2016-08-27T12:57:02.481Z,1765
2016-08-27T12:58:03.191Z,1735
2016-08-27T12:59:02.463Z,1720
2016-08-27T13:00:02.488Z,1735
2016-08-27T13:01:03.923Z,1775
2016-08-27T13:02:03.902Z,1795
2016-08-27T13:03:03.210Z,1810
2016-08-27T13:04:02.499Z,1850
2016-08-27T13:05:03.268Z,1915
2016-08-27T13:06:03.218Z,1925
2016-08-27T13:07:03.245Z,1905
2016-08-27T13:08:03.965Z,1870
2016-08-27T13:09:04.013Z,1875
2016-08-27T13:10:03.291Z,1875
2016-08-27T13:11:04.039Z,1865
2016-08-27T13:12:02.601Z,1845
2016-08-27T13:13:02.578Z,1810
2016-08-27T13:14:03.307Z,1760
2016-08-27T13:15:02.575Z,1735
2016-08-27T13:16:02.602Z,1730
2016-08-27T13:17:02.581Z,1745
2016-08-27T13:18:03.301Z,1765
2016-08-27T13:19:02.596Z,1735
2016-08-27T13:20:03.375Z,1710
2016-08-27T13:21:02.617Z,1670
2016-08-27T13:22:03.383Z,1670
2016-08-27T13:23:03.357Z,1690
2016-08-27T13:24:04.818Z,1705
2016-08-27T13:25:02.657Z,1710
2016-08-27T13:26:03.377Z,1640
2016-08-27T13:27:04.130Z,1595
2016-08-27T13:28:04.130Z,1595
2016-08-27T13:29:03.393Z,1610
2016-08-27T13:30:03.394Z,1610
2016-08-27T13:31:03.383Z,1595
2016-08-27T13:32:03.393Z,1565
2016-08-27T13:33:02.714Z,1545
2016-08-27T13:34:03.439Z,1575
2016-08-27T13:35:03.443Z,1580
2016-08-27T13:36:02.727Z,1560
2016-08-27T13:37:02.723Z,1530
2016-08-27T13:38:02.740Z,1520
2016-08-27T13:39:02.747Z,1520
2016-08-27T13:40:04.167Z,1525
2016-08-27T13:41:02.753Z,1535
2016-08-27T13:42:02.781Z,1150
2016-08-27T13:43:02.779Z,1500
2016-08-27T13:44:02.789Z,1545
2016-08-27T13:45:02.798Z,1540
2016-08-27T13:46:03.496Z,1460
2016-08-27T13:47:04.191Z,1390
2016-08-27T13:48:04.965Z,1475
2016-08-27T13:49:02.810Z,1460
2016-08-27T13:50:04.261Z,1535
2016-08-27T13:51:03.561Z,1530
2016-08-27T13:52:04.249Z,1520
2016-08-27T13:53:04.330Z,1435
2016-08-27T13:54:03.589Z,1310
2016-08-27T13:55:04.241Z,1340
2016-08-27T13:56:02.830Z,1110
2016-08-27T13:57:03.548Z,1005
2016-08-27T13:58:03.616Z,1250
2016-08-27T13:59:03.071Z,1355
2016-08-27T14:00:03.603Z,1365
2016-08-27T14:01:04.324Z,1315
2016-08-27T14:02:02.871Z,1320
2016-08-27T14:03:02.867Z,1360
2016-08-27T14:04:03.613Z,1380